Data for 01/09/2017

Time Sea-Level Adjusted Pressure Absolute Pressure Temperature Relative Humidity Dew Point   
(mb) (inHg) (mb) (inHg) (C) (F) (%) (C) (F)
00:05 1006 29.71 835 24.66 -2 28.5 85 -4.1 24.6
00:10 1006 29.71 835 24.66 -1.6 29 83 -4.2 24.5
00:15 1006 29.71 835 24.66 -1.1 30 80 -4.2 24.5
00:20 1005 29.68 835 24.66 -1.2 29.9 80 -4.2 24.5
00:25 1005 29.68 835 24.66 -1.1 30 79 -4.2 24.4
00:30 1005 29.68 835 24.66 -0.7 30.7 78 -4.1 24.6
00:35 1006 29.71 835 24.66 -0.3 31.5 77 -3.8 25.2
00:40 1005 29.68 835 24.66 0.1 32.1 76 -3.6 25.4
00:45 1005 29.68 834 24.63 0.2 32.4 76 -3.5 25.7
00:50 1005 29.68 834 24.63 0.4 32.8 75 -3.5 25.6
00:55 1005 29.68 834 24.63 0.7 33.3 74 -3.4 25.9
01:00 1005 29.68 834 24.63 0.8 33.4 75 -3.2 26.2
01:05 1005 29.68 834 24.63 0.8 33.4 74 -3.3 26
01:10 1005 29.68 834 24.63 0.7 33.3 75 -3.2 26.2
01:15 1005 29.68 834 24.63 0.7 33.3 74 -3.3 26
01:20 1005 29.68 834 24.63 0.8 33.5 75 -3.2 26.2
01:25 1005 29.68 834 24.63 0.8 33.4 76 -3.1 26.5
01:30 1005 29.68 834 24.63 0.5 33 76 -3.2 26.2
01:35 1005 29.68 834 24.63 0.4 32.8 76 -3.2 26.2
01:40 1005 29.68 834 24.63 0.7 33.3 75 -3.2 26.3
01:45 1005 29.68 834 24.63 0.8 33.5 75 -3.1 26.4
01:50 1005 29.68 834 24.63 -0 32 78 -3.4 25.9
01:55 1005 29.68 834 24.63 -0.7 30.8 79 -3.9 25
02:00 1005 29.68 834 24.63 -0.9 30.3 80 -3.9 24.9
02:05 1005 29.68 834 24.63 -1 30.2 80 -4 24.8
02:10 1005 29.68 834 24.63 -0.9 30.4 80 -4 24.9
02:15 1005 29.68 834 24.63 -0.7 30.8 80 -3.7 25.4
02:20 1005 29.68 834 24.63 -0.4 31.2 79 -3.6 25.6
02:25 1005 29.68 834 24.63 0.1 32.2 77 -3.4 25.8
02:30 1004 29.65 834 24.63 0.5 33 76 -3.2 26.2
02:35 1005 29.68 834 24.63 0.3 32.6 77 -3.2 26.3
02:40 1004 29.65 834 24.63 0.3 32.6 79 -3 26.6
02:45 1004 29.65 833 24.6 0.6 33.1 75 -3.2 26.2
02:50 1004 29.65 834 24.63 0.8 33.4 75 -3.1 26.5
02:55 1004 29.65 834 24.63 2.1 35.8 71 -2.6 27.2
03:00 1004 29.65 834 24.63 1.5 34.7 75 -2.4 27.6
03:05 1004 29.65 834 24.63 0.1 32.2 78 -3.2 26.2
03:10 1004 29.65 834 24.63 0.1 32.2 78 -3.2 26.2
03:15 1004 29.65 834 24.63 0.4 32.6 77 -3.2 26.2
03:20 1004 29.65 833 24.6 0.7 33.3 75 -3.1 26.4
03:25 1004 29.65 833 24.6 0.7 33.3 75 -3.2 26.3
03:30 1004 29.65 833 24.6 0.8 33.5 75 -3.1 26.5
03:35 1004 29.65 833 24.6 0.6 33 77 -3.1 26.5
03:40 1004 29.65 833 24.6 0.2 32.3 78 -3.2 26.3
03:45 1004 29.65 833 24.6 0.7 33.3 75 -3.2 26.2
03:50 1004 29.65 834 24.63 1.2 34.2 73 -3.2 26.3
03:55 1004 29.65 834 24.63 1.5 34.8 71 -3.1 26.5
04:00 1004 29.65 834 24.63 1.8 35.3 71 -2.9 26.8
04:05 1004 29.65 834 24.63 2 35.6 70 -2.8 26.9
04:10 1005 29.68 834 24.63 2.2 36 70 -2.7 27.2
04:15 1005 29.68 834 24.63 2.3 36.2 70 -2.5 27.5
04:20 1004 29.65 834 24.63 2.9 37.2 68 -2.4 27.7
04:25 1004 29.65 834 24.63 3.3 38 67 -2.2 28
04:30 1004 29.65 834 24.63 3.3 37.9 68 -2.2 28.1
04:35 1004 29.65 833 24.6 3.1 37.7 67 -2.3 27.8
04:40 1004 29.65 834 24.63 2.7 36.8 70 -2.3 27.8
04:45 1004 29.65 834 24.63 2.2 35.9 71 -2.6 27.3
04:50 1004 29.65 834 24.63 2.1 35.8 71 -2.6 27.3
04:55 1004 29.65 833 24.6 2 35.7 72 -2.5 27.4
05:00 1004 29.65 833 24.6 2.4 36.3 71 -2.4 27.6
05:05 1004 29.65 833 24.6 2.5 36.5 71 -2.3 27.8
05:10 1004 29.65 833 24.6 2.5 36.6 70 -2.3 27.8
05:15 1004 29.65 833 24.6 2.4 36.4 71 -2.2 28
05:20 1004 29.65 833 24.6 2.6 36.7 71 -2.2 28
05:25 1004 29.65 833 24.6 2.8 37.1 70 -2.1 28.2
05:30 1004 29.65 833 24.6 2.9 37.3 69 -2.1 28.2
05:35 1004 29.65 833 24.6 2.9 37.2 70 -2.1 28.3
05:40 1004 29.65 833 24.6 2.9 37.3 70 -2.1 28.3
05:45 1004 29.65 833 24.6 3 37.4 69 -2.1 28.3
05:50 1004 29.65 833 24.6 3.1 37.5 70 -1.9 28.5
05:55 1004 29.65 833 24.6 3.4 38 68 -2 28.4
06:00 1004 29.65 833 24.6 3.7 38.6 68 -1.7 29
06:05 1004 29.65 833 24.6 3.6 38.5 68 -1.8 28.8
06:10 1004 29.65 833 24.6 3.8 38.8 67 -1.8 28.8
06:15 1004 29.65 833 24.6 3.4 38.2 69 -1.7 29
06:20 1004 29.65 833 24.6 3.6 38.4 68 -1.8 28.8
06:25 1004 29.65 833 24.6 3.6 38.5 68 -1.7 28.9
06:30 1004 29.65 833 24.6 3.3 38 70 -1.6 29.1
06:35 1004 29.65 833 24.6 3.4 38.1 69 -1.8 28.8
06:40 1004 29.65 833 24.6 3.4 38.1 69 -1.7 29
06:45 1004 29.65 833 24.6 3.2 37.7 71 -1.6 29.1
06:50 1004 29.65 833 24.6 3 37.5 71 -1.7 28.9
06:55 1004 29.65 833 24.6 3.1 37.6 69 -2 28.4
07:00 1004 29.65 833 24.6 3.7 38.6 67 -1.9 28.5
07:05 1004 29.65 833 24.6 3.9 39.1 69 -1.3 29.7
07:10 1004 29.65 833 24.6 3.1 37.5 71 -1.7 29
07:15 1004 29.65 833 24.6 3.2 37.7 69 -1.9 28.7
07:20 1004 29.65 833 24.6 3.2 37.8 70 -1.6 29
07:25 1004 29.65 833 24.6 3.6 38.5 68 -1.8 28.8
07:30 1003 29.62 833 24.6 3.7 38.6 69 -1.4 29.5
07:35 1003 29.62 833 24.6 3.2 37.8 72 -1.4 29.4
07:40 1004 29.65 833 24.6 3.1 37.6 72 -1.5 29.2
07:45 1004 29.65 833 24.6 3.3 37.9 71 -1.5 29.3
07:50 1004 29.65 833 24.6 3.4 38.1 70 -1.6 29.1
07:55 1004 29.65 833 24.6 3.9 39 66 -1.9 28.6
08:00 1004 29.65 833 24.6 4.5 40.1 63 -1.8 28.8
08:05 1004 29.65 833 24.6 5.1 41.1 62 -1.7 29
08:10 1003 29.62 833 24.6 5 40.9 63 -1.4 29.5
08:15 1003 29.62 832 24.57 4.3 39.8 66 -1.5 29.2
08:20 1003 29.62 832 24.57 4.2 39.6 65 -1.7 29
08:25 1003 29.62 832 24.57 4.4 39.9 63 -2 28.4
08:30 1003 29.62 832 24.57 4.8 40.6 63 -1.6 29
08:35 1003 29.62 832 24.57 4.7 40.5 63 -1.6 29.1
08:40 1003 29.62 832 24.57 3.8 38.8 69 -1.5 29.4
08:45 1003 29.62 832 24.57 3.1 37.6 73 -1.4 29.6
08:50 1003 29.62 832 24.57 2.6 36.7 71 -2.2 28.1
08:55 1003 29.62 832 24.57 3.7 38.6 67 -1.9 28.6
09:00 1003 29.62 832 24.57 4.1 39.3 65 -2 28.4
09:05 1003 29.62 832 24.57 4.5 40.1 63 -2 28.4
09:10 1003 29.62 832 24.57 4.6 40.2 64 -1.7 29
09:15 1003 29.62 832 24.57 4.5 40.2 63 -1.8 28.8
09:20 1003 29.62 832 24.57 3.5 38.2 69 -1.7 29
09:25 1003 29.62 832 24.57 3.1 37.6 68 -2.2 28
09:30 1003 29.62 832 24.57 3.3 37.9 66 -2.4 27.6
09:35 1003 29.62 832 24.57 4.3 39.8 63 -2.1 28.3
09:40 1003 29.62 832 24.57 4.1 39.4 64 -2 28.4
09:45 1003 29.62 832 24.57 3.6 38.4 65 -2.3 27.8
09:50 1003 29.62 832 24.57 3.7 38.6 65 -2.3 27.8
09:55 1003 29.62 832 24.57 3.7 38.7 65 -2.3 27.9
10:00 1003 29.62 832 24.57 3.6 38.5 65 -2.2 28
10:05 1003 29.62 832 24.57 3.3 38 65 -2.6 27.3
10:10 1003 29.62 832 24.57 3.8 38.8 64 -2.5 27.6
10:15 1003 29.62 832 24.57 3.5 38.2 62 -3.1 26.5
10:20 1003 29.62 832 24.57 4.1 39.3 59 -3.1 26.4
10:25 1003 29.62 832 24.57 4.1 39.3 55 -4.2 24.5
10:30 1003 29.62 832 24.57 5.6 42 51 -3.9 25
10:35 1003 29.62 832 24.57 5.5 41.9 55 -2.9 26.7
10:40 1003 29.62 832 24.57 4.8 40.7 55 -3.4 25.9
10:45 1003 29.62 832 24.57 5.3 41.5 56 -2.8 26.9
10:50 1003 29.62 832 24.57 5.2 41.3 56 -3 26.7
10:55 1003 29.62 832 24.57 5.4 41.8 54 -3.2 26.2
11:00 1003 29.62 832 24.57 5.5 41.9 56 -2.5 27.5
11:05 1003 29.62 832 24.57 5.2 41.4 57 -2.5 27.5
11:10 1003 29.62 832 24.57 4.9 40.9 58 -2.5 27.4
11:15 1003 29.62 832 24.57 5 41 57 -2.7 27.2
11:20 1003 29.62 832 24.57 5.1 41.2 58 -2.5 27.5
11:25 1003 29.62 832 24.57 5.3 41.5 55 -2.9 26.7
11:30 1003 29.62 832 24.57 5.8 42.4 52 -3.3 26
11:35 1003 29.62 832 24.57 6.6 43.9 47 -3.9 25.1
11:40 1003 29.62 832 24.57 7.1 44.7 46 -3.7 25.3
11:45 1003 29.62 832 24.57 6.9 44.4 47 -3.6 25.5
11:50 1003 29.62 832 24.57 6.7 44.1 48 -3.6 25.5
11:55 1003 29.62 832 24.57 6.6 43.9 48 -3.6 25.5
12:00 1003 29.62 832 24.57 6.7 44.1 48 -3.5 25.7
12:05 1003 29.62 832 24.57 6.7 44 49 -3.3 26.1
12:10 1003 29.62 832 24.57 6.6 43.9 50 -3 26.6
12:15 1003 29.62 832 24.57 6.5 43.8 51 -3 26.7
12:20 1003 29.62 832 24.57 6.6 43.8 51 -2.9 26.8
12:25 1003 29.62 832 24.57 6.7 44 50 -3.1 26.5
12:30 1003 29.62 832 24.57 6.6 44 51 -2.8 26.9
12:35 1003 29.62 832 24.57 6.6 43.9 51 -2.8 26.9
12:40 1002 29.59 832 24.57 6.7 44.1 49 -3.2 26.2
12:45 1002 29.59 832 24.57 6.9 44.3 50 -2.8 27
12:50 1002 29.59 831 24.54 6.7 44.1 51 -2.7 27.2
12:55 1002 29.59 831 24.54 6.5 43.7 53 -2.4 27.7
13:00 1002 29.59 832 24.57 6.3 43.3 54 -2.4 27.7
13:05 1002 29.59 832 24.57 6.2 43.2 52 -2.8 26.9
13:10 1002 29.59 831 24.54 6.1 43 54 -2.6 27.4
13:15 1002 29.59 831 24.54 5.9 42.6 56 -2.3 27.9
13:20 1002 29.59 831 24.54 5.5 41.8 59 -1.9 28.6
13:25 1002 29.59 831 24.54 5.1 41.2 58 -2.4 27.7
13:30 1002 29.59 831 24.54 5.2 41.3 56 -3 26.6
13:35 1002 29.59 831 24.54 5.3 41.6 55 -2.9 26.7
13:40 1002 29.59 831 24.54 5.2 41.4 56 -2.8 27
13:45 1002 29.59 831 24.54 5.1 41.2 58 -2.5 27.5
13:50 1002 29.59 831 24.54 5 40.9 59 -2.3 27.9
13:55 1002 29.59 831 24.54 4.9 40.8 59 -2.5 27.5
14:00 1002 29.59 831 24.54 4.9 40.8 59 -2.4 27.7
14:05 1002 29.59 831 24.54 4.9 40.9 59 -2.4 27.7
14:10 1002 29.59 831 24.54 5 40.9 58 -2.6 27.3
14:15 1001 29.56 831 24.54 4.9 40.9 59 -2.5 27.5
14:20 1002 29.59 831 24.54 4.9 40.8 59 -2.5 27.5
14:25 1002 29.59 831 24.54 4.6 40.3 64 -1.7 29
14:30 1001 29.56 831 24.54 3.8 38.8 70 -1.3 29.7
14:35 1002 29.59 831 24.54 3.2 37.8 72 -1.3 29.7
14:40 1001 29.56 831 24.54 3 37.4 73 -1.4 29.4
14:45 1001 29.56 831 24.54 2.9 37.2 73 -1.4 29.5
14:50 1001 29.56 831 24.54 2.8 37 74 -1.4 29.5
14:55 1001 29.56 831 24.54 2.8 37.1 72 -1.7 29
15:00 1001 29.56 830 24.51 2.9 37.2 72 -1.7 29
15:05 1001 29.56 831 24.54 3 37.3 72 -1.6 29.2
15:10 1002 29.59 831 24.54 3 37.3 71 -1.9 28.7
15:15 1002 29.59 831 24.54 2.9 37.2 74 -1.2 29.8
15:20 1002 29.59 831 24.54 2.4 36.3 78 -1 30.2
15:25 1002 29.59 831 24.54 2.1 35.8 80 -0.9 30.3
15:30 1002 29.59 831 24.54 2 35.6 81 -0.9 30.4
15:35 1002 29.59 831 24.54 1.8 35.3 83 -0.8 30.5
15:40 1002 29.59 831 24.54 1.8 35.2 83 -0.9 30.4
15:45 1002 29.59 831 24.54 1.7 35.1 82 -1 30.1
15:50 1001 29.56 831 24.54 1.8 35.3 81 -1.2 29.9
15:55 1001 29.56 830 24.51 1.7 35.1 81 -1.2 29.9
16:00 1001 29.56 830 24.51 1.6 34.9 82 -1.2 29.9
16:05 1001 29.56 830 24.51 1.7 35 79 -1.5 29.2
16:10 1001 29.56 830 24.51 2 35.5 76 -1.9 28.6
16:15 1001 29.56 830 24.51 2.2 35.9 79 -1.1 30.1
16:20 1001 29.56 830 24.51 1.7 35.1 83 -0.9 30.5
16:25 1001 29.56 830 24.51 1.5 34.7 82 -1.3 29.7
16:30 1001 29.56 830 24.51 1.8 35.2 78 -1.7 28.9
16:35 1001 29.56 830 24.51 2.1 35.7 75 -1.9 28.5
16:40 1001 29.56 830 24.51 2.4 36.2 72 -2.1 28.2
16:45 1001 29.56 830 24.51 2.6 36.6 73 -1.8 28.7
16:50 1001 29.56 830 24.51 2.6 36.7 73 -1.7 28.9
16:55 1001 29.56 830 24.51 2.7 36.8 70 -2.2 28
17:00 1001 29.56 830 24.51 2.9 37.2 69 -2.3 27.9
17:05 1001 29.56 830 24.51 3 37.4 64 -3.2 26.2
17:10 1001 29.56 830 24.51 3.1 37.6 65 -2.8 27
17:15 1001 29.56 830 24.51 2.9 37.2 70 -2 28.3
17:20 1001 29.56 830 24.51 2.6 36.6 70 -2.4 27.7
17:25 1001 29.56 830 24.51 2.6 36.7 68 -2.7 27.2
17:30 1001 29.56 830 24.51 2.6 36.6 71 -2.2 28
17:35 1001 29.56 830 24.51 2.5 36.6 67 -2.9 26.8
17:40 1001 29.56 831 24.54 2.7 36.9 66 -3.1 26.5
17:45 1001 29.56 831 24.54 2.9 37.2 64 -3.3 26
17:50 1001 29.56 831 24.54 3 37.4 62 -3.5 25.7
17:55 1001 29.56 831 24.54 3 37.5 60 -4.1 24.6
18:00 1002 29.59 831 24.54 3.1 37.6 61 -3.8 25.2
18:05 1002 29.59 831 24.54 3 37.5 61 -3.7 25.3
18:10 1002 29.59 831 24.54 3 37.3 64 -3.3 26.1
18:15 1002 29.59 832 24.57 2.7 36.8 66 -3 26.5
18:20 1003 29.62 832 24.57 2.4 36.3 67 -3.1 26.4
18:25 1003 29.62 832 24.57 2.2 36 67 -3.3 26.1
18:30 1003 29.62 832 24.57 2.1 35.8 65 -3.7 25.3
18:35 1003 29.62 832 24.57 2 35.7 66 -3.7 25.3
18:40 1003 29.62 832 24.57 1.7 35.1 69 -3.3 26.1
18:45 1003 29.62 833 24.6 1.1 34 74 -3 26.6
18:50 1004 29.65 833 24.6 0.6 33.1 72 -3.9 24.9
18:55 1004 29.65 833 24.6 0.5 33 74 -3.6 25.6
19:00 1004 29.65 833 24.6 0.5 32.9 78 -2.9 26.8
19:05 1004 29.65 833 24.6 0.3 32.6 82 -2.4 27.6
19:10 1004 29.65 833 24.6 0.1 32.2 85 -2.2 28
19:15 1004 29.65 834 24.63 -0.1 31.8 87 -2.1 28.3
19:20 1004 29.65 834 24.63 -0.4 31.2 89 -2.1 28.3
19:25 1004 29.65 834 24.63 -0.7 30.8 90 -2.2 28.1
19:30 1004 29.65 834 24.63 -0.7 30.7 90 -2.2 28
19:35 1005 29.68 834 24.63 -0.7 30.8 89 -2.3 27.9
19:40 1005 29.68 834 24.63 -0.6 30.9 87 -2.6 27.4
19:45 1005 29.68 834 24.63 -0.6 30.9 85 -2.8 26.9
19:50 1005 29.68 834 24.63 -0.6 30.9 85 -2.8 27
19:55 1005 29.68 834 24.63 -0.6 30.8 84 -3 26.5
20:00 1005 29.68 834 24.63 -0.5 31 82 -3.2 26.2
20:05 1005 29.68 834 24.63 -0.6 31 82 -3.3 26.1
20:10 1005 29.68 834 24.63 -0.5 31 82 -3.3 26
20:15 1005 29.68 834 24.63 -0.5 31.1 81 -3.4 25.8
20:20 1005 29.68 834 24.63 -0.5 31.1 81 -3.4 25.9
20:25 1005 29.68 834 24.63 -0.6 31 81 -3.4 25.8
20:30 1005 29.68 834 24.63 -0.6 31 81 -3.5 25.7
20:35 1005 29.68 834 24.63 -0.5 31 79 -3.7 25.4
20:40 1005 29.68 834 24.63 -0.5 31.2 80 -3.5 25.6
20:45 1005 29.68 834 24.63 -0.5 31.1 80 -3.5 25.7
20:50 1005 29.68 834 24.63 -0.6 31 80 -3.7 25.4
20:55 1005 29.68 834 24.63 -0.6 31 78 -3.9 25.1
21:00 1005 29.68 834 24.63 -0.5 31 78 -3.9 24.9
21:05 1005 29.68 834 24.63 -0.5 31.1 78 -3.9 24.9
21:10 1005 29.68 834 24.63 -0.5 31.1 77 -4.1 24.7
21:15 1005 29.68 834 24.63 -0.6 31 77 -4.1 24.6
21:20 1005 29.68 834 24.63 -0.6 30.9 76 -4.3 24.3
21:25 1005 29.68 834 24.63 -0.6 30.8 75 -4.5 23.9
21:30 1005 29.68 834 24.63 -0.7 30.8 72 -5.1 22.9
21:35 1005 29.68 834 24.63 -0.6 30.9 72 -5.1 22.9
21:40 1005 29.68 834 24.63 -0.7 30.8 71 -5.2 22.6
21:45 1005 29.68 834 24.63 -0.7 30.7 67 -6.1 21
21:50 1005 29.68 834 24.63 -0.7 30.8 61 -7.2 19
21:55 1005 29.68 834 24.63 -0.7 30.7 59 -7.8 17.9
22:00 1005 29.68 834 24.63 -0.8 30.6 58 -8 17.6
22:05 1005 29.68 834 24.63 -0.9 30.5 58 -8.2 17.3
22:10 1005 29.68 834 24.63 -0.9 30.3 53 -9.4 15.1
22:15 1005 29.68 834 24.63 -1 30.3 51 -10 14.1
22:20 1005 29.68 834 24.63 -1 30.1 49 -10.4 13.3
22:25 1005 29.68 834 24.63 -1.1 30.1 44 -12 10.5
22:30 1005 29.68 834 24.63 -1.1 30 44 -11.9 10.5
22:35 1005 29.68 834 24.63 -1.1 30 42 -12.5 9.5
22:40 1005 29.68 834 24.63 -1.1 29.9 42 -12.4 9.6
22:45 1005 29.68 834 24.63 -1.2 29.8 42 -12.6 9.4
22:50 1005 29.68 834 24.63 -1.2 29.8 42 -12.7 9.1
22:55 1005 29.68 834 24.63 -1.3 29.7 43 -12.4 9.7
23:00 1005 29.68 834 24.63 -1.4 29.6 44 -12.2 10
23:05 1005 29.68 834 24.63 -1.4 29.4 44 -12.1 10.3
23:10 1005 29.68 835 24.66 -1.5 29.3 45 -12.1 10.2
23:15 1005 29.68 835 24.66 -1.6 29.2 47 -11.5 11.3
23:20 1006 29.71 835 24.66 -1.6 29.1 49 -11 12.2
23:25 1006 29.71 835 24.66 -1.7 28.9 52 -10.3 13.5
23:30 1006 29.71 835 24.66 -2 28.4 54 -10 14
23:35 1006 29.71 835 24.66 -2.1 28.2 54 -10.2 13.7
23:40 1006 29.71 835 24.66 -2.1 28.2 55 -9.9 14.2
23:45 1006 29.71 835 24.66 -2.2 28 58 -9.4 15
23:50 1006 29.71 835 24.66 -2.3 27.8 60 -9.1 15.5
23:55 1006 29.71 835 24.66 -2.4 27.7 60 -9.1 15.7
24:00 1006 29.71 835 24.66 -2.5 27.6 60 -9.3 15.3